sensor_id;sensor_type;location;lat;lon;timestamp;P1;durP1;ratioP1;P2;durP2;ratioP2
42614;SDS011;28754;47.700;7.924;2023-12-20T00:02:02;1.45;;;0.93;;
42614;SDS011;28754;47.700;7.924;2023-12-20T00:04:49;2.05;;;1.00;;
42614;SDS011;28754;47.700;7.924;2023-12-20T00:07:36;2.13;;;1.48;;
42614;SDS011;28754;47.700;7.924;2023-12-20T00:10:22;1.75;;;0.95;;
42614;SDS011;28754;47.700;7.924;2023-12-20T00:13:09;0.77;;;0.73;;
42614;SDS011;28754;47.700;7.924;2023-12-20T00:15:56;5.72;;;2.20;;
42614;SDS011;28754;47.700;7.924;2023-12-20T00:18:43;3.45;;;2.13;;
42614;SDS011;28754;47.700;7.924;2023-12-20T00:21:29;1.67;;;1.40;;
42614;SDS011;28754;47.700;7.924;2023-12-20T00:24:16;3.38;;;1.92;;
42614;SDS011;28754;47.700;7.924;2023-12-20T00:27:03;2.35;;;1.42;;
42614;SDS011;28754;47.700;7.924;2023-12-20T00:29:50;4.20;;;1.35;;
42614;SDS011;28754;47.700;7.924;2023-12-20T00:32:36;1.77;;;1.20;;
42614;SDS011;28754;47.700;7.924;2023-12-20T00:35:24;4.15;;;1.30;;
42614;SDS011;28754;47.700;7.924;2023-12-20T00:38:11;4.15;;;2.28;;
42614;SDS011;28754;47.700;7.924;2023-12-20T00:40:57;1.75;;;1.40;;
42614;SDS011;28754;47.700;7.924;2023-12-20T00:43:44;2.28;;;1.50;;
42614;SDS011;28754;47.700;7.924;2023-12-20T00:46:31;2.90;;;1.92;;
42614;SDS011;28754;47.700;7.924;2023-12-20T00:49:17;3.33;;;1.40;;
42614;SDS011;28754;47.700;7.924;2023-12-20T00:52:04;1.83;;;1.25;;
42614;SDS011;28754;47.700;7.924;2023-12-20T00:54:51;2.63;;;1.88;;
42614;SDS011;28754;47.700;7.924;2023-12-20T00:57:38;1.95;;;1.52;;
42614;SDS011;28754;47.700;7.924;2023-12-20T01:00:24;3.10;;;1.80;;
42614;SDS011;28754;47.700;7.924;2023-12-20T01:03:11;5.35;;;1.58;;
42614;SDS011;28754;47.700;7.924;2023-12-20T01:05:58;3.30;;;1.77;;
42614;SDS011;28754;47.700;7.924;2023-12-20T01:08:44;3.30;;;1.30;;
42614;SDS011;28754;47.700;7.924;2023-12-20T01:11:31;3.75;;;1.30;;
42614;SDS011;28754;47.700;7.924;2023-12-20T01:14:18;3.85;;;1.08;;
42614;SDS011;28754;47.700;7.924;2023-12-20T01:17:05;6.47;;;1.88;;
42614;SDS011;28754;47.700;7.924;2023-12-20T01:19:51;3.85;;;1.67;;
42614;SDS011;28754;47.700;7.924;2023-12-20T01:22:38;2.60;;;1.20;;
42614;SDS011;28754;47.700;7.924;2023-12-20T01:25:25;11.10;;;2.33;;
42614;SDS011;28754;47.700;7.924;2023-12-20T01:28:11;1.48;;;1.00;;
42614;SDS011;28754;47.700;7.924;2023-12-20T01:30:58;7.68;;;1.95;;
42614;SDS011;28754;47.700;7.924;2023-12-20T01:33:45;6.75;;;1.50;;
42614;SDS011;28754;47.700;7.924;2023-12-20T01:36:31;9.38;;;2.60;;
42614;SDS011;28754;47.700;7.924;2023-12-20T01:39:18;1.98;;;0.98;;
42614;SDS011;28754;47.700;7.924;2023-12-20T01:42:05;0.95;;;0.57;;
42614;SDS011;28754;47.700;7.924;2023-12-20T01:44:51;0.43;;;0.30;;
42614;SDS011;28754;47.700;7.924;2023-12-20T01:47:38;2.47;;;0.60;;
42614;SDS011;28754;47.700;7.924;2023-12-20T01:50:25;15.57;;;1.77;;
42614;SDS011;28754;47.700;7.924;2023-12-20T01:53:13;26.45;;;1.80;;
42614;SDS011;28754;47.700;7.924;2023-12-20T01:56:01;19.52;;;1.40;;
42614;SDS011;28754;47.700;7.924;2023-12-20T01:58:48;51.65;;;4.22;;
42614;SDS011;28754;47.700;7.924;2023-12-20T02:01:35;2.35;;;0.45;;
42614;SDS011;28754;47.700;7.924;2023-12-20T02:04:21;49.33;;;3.85;;
42614;SDS011;28754;47.700;7.924;2023-12-20T02:07:08;0.85;;;0.20;;
42614;SDS011;28754;47.700;7.924;2023-12-20T02:09:57;4.57;;;0.80;;
42614;SDS011;28754;47.700;7.924;2023-12-20T02:12:44;25.45;;;1.77;;
42614;SDS011;28754;47.700;7.924;2023-12-20T02:15:30;11.43;;;0.93;;
42614;SDS011;28754;47.700;7.924;2023-12-20T02:18:17;68.40;;;5.32;;
42614;SDS011;28754;47.700;7.924;2023-12-20T02:21:05;223.38;;;21.67;;
42614;SDS011;28754;47.700;7.924;2023-12-20T02:23:52;132.30;;;9.27;;
42614;SDS011;28754;47.700;7.924;2023-12-20T02:26:38;110.18;;;7.53;;
42614;SDS011;28754;47.700;7.924;2023-12-20T02:29:26;74.13;;;3.92;;
42614;SDS011;28754;47.700;7.924;2023-12-20T02:32:13;105.95;;;6.70;;
42614;SDS011;28754;47.700;7.924;2023-12-20T02:35:00;76.70;;;3.92;;
42614;SDS011;28754;47.700;7.924;2023-12-20T02:37:46;40.97;;;2.30;;
42614;SDS011;28754;47.700;7.924;2023-12-20T02:40:33;24.58;;;2.30;;
42614;SDS011;28754;47.700;7.924;2023-12-20T02:43:20;109.10;;;6.57;;
42614;SDS011;28754;47.700;7.924;2023-12-20T02:46:06;52.10;;;3.25;;
42614;SDS011;28754;47.700;7.924;2023-12-20T02:48:53;80.45;;;6.03;;
42614;SDS011;28754;47.700;7.924;2023-12-20T02:51:40;98.25;;;5.90;;
42614;SDS011;28754;47.700;7.924;2023-12-20T02:54:26;23.58;;;2.08;;
42614;SDS011;28754;47.700;7.924;2023-12-20T02:57:13;51.88;;;3.63;;
42614;SDS011;28754;47.700;7.924;2023-12-20T02:59:59;111.15;;;6.80;;
42614;SDS011;28754;47.700;7.924;2023-12-20T03:02:46;94.15;;;4.93;;
42614;SDS011;28754;47.700;7.924;2023-12-20T03:05:33;16.25;;;1.20;;
42614;SDS011;28754;47.700;7.924;2023-12-20T03:08:19;55.17;;;3.05;;
42614;SDS011;28754;47.700;7.924;2023-12-20T03:11:06;64.25;;;4.15;;
42614;SDS011;28754;47.700;7.924;2023-12-20T03:13:53;27.35;;;1.77;;
42614;SDS011;28754;47.700;7.924;2023-12-20T03:16:39;56.30;;;4.03;;
42614;SDS011;28754;47.700;7.924;2023-12-20T03:19:26;179.60;;;11.93;;
42614;SDS011;28754;47.700;7.924;2023-12-20T03:22:13;29.08;;;2.38;;
42614;SDS011;28754;47.700;7.924;2023-12-20T03:24:59;108.82;;;5.88;;
42614;SDS011;28754;47.700;7.924;2023-12-20T03:27:46;106.38;;;5.53;;
42614;SDS011;28754;47.700;7.924;2023-12-20T03:30:33;116.10;;;7.00;;
42614;SDS011;28754;47.700;7.924;2023-12-20T03:33:19;117.72;;;9.02;;
42614;SDS011;28754;47.700;7.924;2023-12-20T03:36:06;22.77;;;2.53;;
42614;SDS011;28754;47.700;7.924;2023-12-20T03:38:53;9.88;;;0.90;;
42614;SDS011;28754;47.700;7.924;2023-12-20T03:41:40;10.57;;;0.80;;
42614;SDS011;28754;47.700;7.924;2023-12-20T03:44:26;30.10;;;2.50;;
42614;SDS011;28754;47.700;7.924;2023-12-20T03:47:13;30.33;;;1.92;;
42614;SDS011;28754;47.700;7.924;2023-12-20T03:50:00;29.10;;;2.03;;
42614;SDS011;28754;47.700;7.924;2023-12-20T03:52:46;0.30;;;0.20;;
42614;SDS011;28754;47.700;7.924;2023-12-20T03:55:33;53.72;;;4.00;;
42614;SDS011;28754;47.700;7.924;2023-12-20T03:58:19;38.60;;;2.33;;
42614;SDS011;28754;47.700;7.924;2023-12-20T04:01:10;31.42;;;2.33;;
42614;SDS011;28754;47.700;7.924;2023-12-20T04:03:57;58.08;;;3.45;;
42614;SDS011;28754;47.700;7.924;2023-12-20T04:06:44;33.25;;;2.72;;
42614;SDS011;28754;47.700;7.924;2023-12-20T04:09:31;108.43;;;7.03;;
42614;SDS011;28754;47.700;7.924;2023-12-20T04:12:18;23.90;;;2.33;;
42614;SDS011;28754;47.700;7.924;2023-12-20T04:15:05;4.38;;;0.60;;
42614;SDS011;28754;47.700;7.924;2023-12-20T04:17:55;69.60;;;3.97;;
42614;SDS011;28754;47.700;7.924;2023-12-20T04:20:41;0.25;;;0.13;;
42614;SDS011;28754;47.700;7.924;2023-12-20T04:23:28;40.03;;;2.70;;
42614;SDS011;28754;47.700;7.924;2023-12-20T04:26:15;11.13;;;1.08;;
42614;SDS011;28754;47.700;7.924;2023-12-20T04:29:01;0.85;;;0.35;;
42614;SDS011;28754;47.700;7.924;2023-12-20T04:31:48;22.45;;;1.80;;
42614;SDS011;28754;47.700;7.924;2023-12-20T04:34:37;10.40;;;0.80;;
42614;SDS011;28754;47.700;7.924;2023-12-20T04:37:24;16.85;;;1.10;;
42614;SDS011;28754;47.700;7.924;2023-12-20T04:40:11;43.17;;;4.00;;
42614;SDS011;28754;47.700;7.924;2023-12-20T04:42:58;55.80;;;4.18;;
42614;SDS011;28754;47.700;7.924;2023-12-20T04:45:44;150.07;;;8.77;;
42614;SDS011;28754;47.700;7.924;2023-12-20T04:48:31;168.50;;;9.95;;
42614;SDS011;28754;47.700;7.924;2023-12-20T04:51:18;157.13;;;8.32;;
42614;SDS011;28754;47.700;7.924;2023-12-20T04:54:04;241.35;;;13.20;;
42614;SDS011;28754;47.700;7.924;2023-12-20T04:56:51;241.88;;;11.95;;
42614;SDS011;28754;47.700;7.924;2023-12-20T04:59:37;227.25;;;11.25;;
42614;SDS011;28754;47.700;7.924;2023-12-20T05:02:24;213.27;;;13.02;;
42614;SDS011;28754;47.700;7.924;2023-12-20T05:05:11;247.85;;;13.07;;
42614;SDS011;28754;47.700;7.924;2023-12-20T05:07:58;203.90;;;9.93;;
42614;SDS011;28754;47.700;7.924;2023-12-20T05:10:45;280.83;;;13.95;;
42614;SDS011;28754;47.700;7.924;2023-12-20T05:13:31;220.70;;;12.15;;
42614;SDS011;28754;47.700;7.924;2023-12-20T05:16:18;272.13;;;15.63;;
42614;SDS011;28754;47.700;7.924;2023-12-20T05:19:05;203.60;;;13.20;;
42614;SDS011;28754;47.700;7.924;2023-12-20T05:21:52;197.48;;;10.25;;
42614;SDS011;28754;47.700;7.924;2023-12-20T05:24:39;139.27;;;8.73;;
42614;SDS011;28754;47.700;7.924;2023-12-20T05:27:25;262.35;;;13.18;;
42614;SDS011;28754;47.700;7.924;2023-12-20T05:30:12;283.27;;;16.45;;
42614;SDS011;28754;47.700;7.924;2023-12-20T05:32:59;196.85;;;8.57;;
42614;SDS011;28754;47.700;7.924;2023-12-20T05:35:46;166.65;;;9.52;;
42614;SDS011;28754;47.700;7.924;2023-12-20T05:38:33;228.65;;;12.32;;
42614;SDS011;28754;47.700;7.924;2023-12-20T05:41:20;244.10;;;14.45;;
42614;SDS011;28754;47.700;7.924;2023-12-20T05:44:07;118.72;;;6.10;;
42614;SDS011;28754;47.700;7.924;2023-12-20T05:46:54;204.52;;;10.18;;
42614;SDS011;28754;47.700;7.924;2023-12-20T05:49:40;213.55;;;12.27;;
42614;SDS011;28754;47.700;7.924;2023-12-20T05:52:28;224.63;;;12.05;;
42614;SDS011;28754;47.700;7.924;2023-12-20T05:55:14;368.77;;;17.90;;
42614;SDS011;28754;47.700;7.924;2023-12-20T05:58:01;317.33;;;16.70;;
42614;SDS011;28754;47.700;7.924;2023-12-20T06:00:48;415.17;;;23.15;;
42614;SDS011;28754;47.700;7.924;2023-12-20T06:03:35;380.33;;;21.00;;
42614;SDS011;28754;47.700;7.924;2023-12-20T06:06:21;236.68;;;12.85;;
42614;SDS011;28754;47.700;7.924;2023-12-20T06:09:10;245.38;;;13.43;;
42614;SDS011;28754;47.700;7.924;2023-12-20T06:11:57;315.60;;;18.45;;
42614;SDS011;28754;47.700;7.924;2023-12-20T06:14:43;203.13;;;12.32;;
42614;SDS011;28754;47.700;7.924;2023-12-20T06:17:30;153.60;;;7.97;;
42614;SDS011;28754;47.700;7.924;2023-12-20T06:20:17;216.95;;;9.65;;
42614;SDS011;28754;47.700;7.924;2023-12-20T06:23:04;195.95;;;10.63;;
42614;SDS011;28754;47.700;7.924;2023-12-20T06:25:50;165.13;;;10.20;;
42614;SDS011;28754;47.700;7.924;2023-12-20T06:28:37;219.05;;;12.85;;
42614;SDS011;28754;47.700;7.924;2023-12-20T06:31:23;277.80;;;13.75;;
42614;SDS011;28754;47.700;7.924;2023-12-20T06:34:10;322.15;;;21.83;;
42614;SDS011;28754;47.700;7.924;2023-12-20T06:36:57;208.88;;;12.15;;
42614;SDS011;28754;47.700;7.924;2023-12-20T06:39:43;128.18;;;6.47;;
42614;SDS011;28754;47.700;7.924;2023-12-20T06:42:30;76.68;;;4.15;;
42614;SDS011;28754;47.700;7.924;2023-12-20T06:45:17;120.65;;;6.55;;
42614;SDS011;28754;47.700;7.924;2023-12-20T06:48:03;183.82;;;9.95;;
42614;SDS011;28754;47.700;7.924;2023-12-20T06:50:51;178.65;;;10.95;;
42614;SDS011;28754;47.700;7.924;2023-12-20T06:53:37;152.90;;;7.15;;
42614;SDS011;28754;47.700;7.924;2023-12-20T06:56:24;156.80;;;10.20;;
42614;SDS011;28754;47.700;7.924;2023-12-20T06:59:11;249.32;;;13.93;;
42614;SDS011;28754;47.700;7.924;2023-12-20T07:01:57;303.08;;;15.73;;
42614;SDS011;28754;47.700;7.924;2023-12-20T07:04:44;284.20;;;15.38;;
42614;SDS011;28754;47.700;7.924;2023-12-20T07:07:31;261.23;;;13.60;;
42614;SDS011;28754;47.700;7.924;2023-12-20T07:10:18;371.10;;;21.15;;
42614;SDS011;28754;47.700;7.924;2023-12-20T07:13:04;321.73;;;16.00;;
42614;SDS011;28754;47.700;7.924;2023-12-20T07:15:52;428.50;;;22.80;;
42614;SDS011;28754;47.700;7.924;2023-12-20T07:18:38;316.38;;;20.30;;
42614;SDS011;28754;47.700;7.924;2023-12-20T07:21:25;346.60;;;21.45;;
42614;SDS011;28754;47.700;7.924;2023-12-20T07:24:12;326.02;;;21.13;;
42614;SDS011;28754;47.700;7.924;2023-12-20T07:26:59;351.83;;;20.75;;
42614;SDS011;28754;47.700;7.924;2023-12-20T07:29:46;207.93;;;10.75;;
42614;SDS011;28754;47.700;7.924;2023-12-20T07:32:33;281.23;;;14.65;;
42614;SDS011;28754;47.700;7.924;2023-12-20T07:35:19;135.48;;;12.80;;
42614;SDS011;28754;47.700;7.924;2023-12-20T07:38:06;159.82;;;9.20;;
42614;SDS011;28754;47.700;7.924;2023-12-20T07:40:53;195.02;;;11.77;;
42614;SDS011;28754;47.700;7.924;2023-12-20T07:43:40;85.22;;;5.20;;
42614;SDS011;28754;47.700;7.924;2023-12-20T07:46:27;126.85;;;8.15;;
42614;SDS011;28754;47.700;7.924;2023-12-20T07:49:13;138.70;;;8.52;;
42614;SDS011;28754;47.700;7.924;2023-12-20T07:52:00;149.38;;;9.13;;
42614;SDS011;28754;47.700;7.924;2023-12-20T07:54:47;114.22;;;6.00;;
42614;SDS011;28754;47.700;7.924;2023-12-20T07:57:33;223.55;;;12.02;;
42614;SDS011;28754;47.700;7.924;2023-12-20T08:00:20;293.17;;;20.35;;
42614;SDS011;28754;47.700;7.924;2023-12-20T08:03:07;156.30;;;7.97;;
42614;SDS011;28754;47.700;7.924;2023-12-20T08:05:53;300.27;;;16.27;;
42614;SDS011;28754;47.700;7.924;2023-12-20T08:08:40;266.73;;;16.58;;
42614;SDS011;28754;47.700;7.924;2023-12-20T08:11:26;205.55;;;10.75;;
42614;SDS011;28754;47.700;7.924;2023-12-20T08:14:14;328.98;;;21.33;;
42614;SDS011;28754;47.700;7.924;2023-12-20T08:17:01;389.65;;;21.08;;
42614;SDS011;28754;47.700;7.924;2023-12-20T08:19:48;322.50;;;19.80;;
42614;SDS011;28754;47.700;7.924;2023-12-20T08:22:35;444.83;;;31.48;;
42614;SDS011;28754;47.700;7.924;2023-12-20T08:25:21;397.25;;;26.42;;
42614;SDS011;28754;47.700;7.924;2023-12-20T08:28:08;380.20;;;20.38;;
42614;SDS011;28754;47.700;7.924;2023-12-20T08:30:55;305.77;;;18.85;;
42614;SDS011;28754;47.700;7.924;2023-12-20T08:33:45;231.55;;;15.50;;
42614;SDS011;28754;47.700;7.924;2023-12-20T08:36:34;331.70;;;17.48;;
42614;SDS011;28754;47.700;7.924;2023-12-20T08:39:21;220.30;;;13.07;;
42614;SDS011;28754;47.700;7.924;2023-12-20T08:42:07;188.15;;;11.23;;
42614;SDS011;28754;47.700;7.924;2023-12-20T08:44:54;251.43;;;17.08;;
42614;SDS011;28754;47.700;7.924;2023-12-20T08:47:41;331.38;;;21.38;;
42614;SDS011;28754;47.700;7.924;2023-12-20T08:50:30;254.32;;;14.77;;
42614;SDS011;28754;47.700;7.924;2023-12-20T08:53:17;324.05;;;19.55;;
42614;SDS011;28754;47.700;7.924;2023-12-20T08:56:04;346.33;;;22.85;;
42614;SDS011;28754;47.700;7.924;2023-12-20T08:58:51;292.73;;;21.60;;
42614;SDS011;28754;47.700;7.924;2023-12-20T09:01:38;133.65;;;8.00;;
42614;SDS011;28754;47.700;7.924;2023-12-20T09:04:24;324.88;;;19.17;;
42614;SDS011;28754;47.700;7.924;2023-12-20T09:07:21;260.75;;;21.67;;
42614;SDS011;28754;47.700;7.924;2023-12-20T09:10:12;248.38;;;17.13;;
42614;SDS011;28754;47.700;7.924;2023-12-20T09:12:59;402.55;;;29.88;;
42614;SDS011;28754;47.700;7.924;2023-12-20T09:15:45;58.13;;;4.78;;
42614;SDS011;28754;47.700;7.924;2023-12-20T09:18:32;78.22;;;5.75;;
42614;SDS011;28754;47.700;7.924;2023-12-20T09:21:19;181.68;;;13.70;;
42614;SDS011;28754;47.700;7.924;2023-12-20T09:24:06;14.10;;;2.05;;
42614;SDS011;28754;47.700;7.924;2023-12-20T09:26:53;124.80;;;10.52;;
42614;SDS011;28754;47.700;7.924;2023-12-20T09:29:39;25.52;;;3.03;;
42614;SDS011;28754;47.700;7.924;2023-12-20T09:32:26;222.38;;;16.92;;
42614;SDS011;28754;47.700;7.924;2023-12-20T09:35:13;165.52;;;12.15;;
42614;SDS011;28754;47.700;7.924;2023-12-20T09:38:00;302.85;;;18.70;;
42614;SDS011;28754;47.700;7.924;2023-12-20T09:40:47;416.13;;;29.67;;
42614;SDS011;28754;47.700;7.924;2023-12-20T09:43:35;224.60;;;16.42;;
42614;SDS011;28754;47.700;7.924;2023-12-20T09:46:24;400.75;;;23.30;;
42614;SDS011;28754;47.700;7.924;2023-12-20T09:49:13;422.75;;;24.92;;
42614;SDS011;28754;47.700;7.924;2023-12-20T09:52:03;429.50;;;26.55;;
42614;SDS011;28754;47.700;7.924;2023-12-20T09:54:53;290.20;;;21.45;;
42614;SDS011;28754;47.700;7.924;2023-12-20T09:57:42;494.00;;;32.03;;
42614;SDS011;28754;47.700;7.924;2023-12-20T10:00:29;433.23;;;31.60;;
42614;SDS011;28754;47.700;7.924;2023-12-20T10:03:15;492.67;;;41.35;;
42614;SDS011;28754;47.700;7.924;2023-12-20T10:06:03;481.15;;;29.30;;
42614;SDS011;28754;47.700;7.924;2023-12-20T10:08:50;410.42;;;29.13;;
42614;SDS011;28754;47.700;7.924;2023-12-20T10:11:37;355.20;;;22.23;;
42614;SDS011;28754;47.700;7.924;2023-12-20T10:14:25;396.65;;;27.75;;
42614;SDS011;28754;47.700;7.924;2023-12-20T10:17:12;394.95;;;30.15;;
42614;SDS011;28754;47.700;7.924;2023-12-20T10:19:58;300.25;;;20.08;;
42614;SDS011;28754;47.700;7.924;2023-12-20T10:22:45;461.45;;;30.52;;
42614;SDS011;28754;47.700;7.924;2023-12-20T10:25:32;350.20;;;29.63;;
42614;SDS011;28754;47.700;7.924;2023-12-20T10:28:19;266.00;;;22.60;;
42614;SDS011;28754;47.700;7.924;2023-12-20T10:31:09;489.08;;;40.03;;
42614;SDS011;28754;47.700;7.924;2023-12-20T10:33:59;352.90;;;25.02;;
42614;SDS011;28754;47.700;7.924;2023-12-20T10:36:47;259.48;;;19.38;;
42614;SDS011;28754;47.700;7.924;2023-12-20T10:39:34;434.92;;;35.80;;
42614;SDS011;28754;47.700;7.924;2023-12-20T10:42:30;513.38;;;49.30;;
42614;SDS011;28754;47.700;7.924;2023-12-20T10:45:17;304.20;;;20.48;;
42614;SDS011;28754;47.700;7.924;2023-12-20T10:48:04;395.90;;;32.47;;
42614;SDS011;28754;47.700;7.924;2023-12-20T10:50:51;171.88;;;15.90;;
42614;SDS011;28754;47.700;7.924;2023-12-20T10:53:41;119.25;;;9.10;;
42614;SDS011;28754;47.700;7.924;2023-12-20T10:56:31;394.13;;;27.45;;
42614;SDS011;28754;47.700;7.924;2023-12-20T10:59:19;174.07;;;12.05;;
42614;SDS011;28754;47.700;7.924;2023-12-20T11:02:06;191.77;;;13.73;;
42614;SDS011;28754;47.700;7.924;2023-12-20T11:05:00;265.42;;;21.00;;
42614;SDS011;28754;47.700;7.924;2023-12-20T11:08:11;126.90;;;10.52;;
42614;SDS011;28754;47.700;7.924;2023-12-20T11:11:16;59.38;;;5.15;;
42614;SDS011;28754;47.700;7.924;2023-12-20T11:14:48;51.75;;;5.28;;
42614;SDS011;28754;47.700;7.924;2023-12-20T11:17:39;26.65;;;4.65;;
42614;SDS011;28754;47.700;7.924;2023-12-20T11:20:40;79.38;;;7.63;;
42614;SDS011;28754;47.700;7.924;2023-12-20T11:23:27;9.23;;;2.97;;
42614;SDS011;28754;47.700;7.924;2023-12-20T11:26:16;191.35;;;19.73;;
42614;SDS011;28754;47.700;7.924;2023-12-20T11:29:29;69.57;;;7.70;;
42614;SDS011;28754;47.700;7.924;2023-12-20T11:38:01;9.35;;;2.92;;
42614;SDS011;28754;47.700;7.924;2023-12-20T11:40:49;4.43;;;2.50;;
42614;SDS011;28754;47.700;7.924;2023-12-20T11:43:39;3.38;;;2.20;;
42614;SDS011;28754;47.700;7.924;2023-12-20T11:46:25;3.45;;;2.05;;
42614;SDS011;28754;47.700;7.924;2023-12-20T11:49:12;3.67;;;3.13;;
42614;SDS011;28754;47.700;7.924;2023-12-20T11:51:59;6.10;;;3.63;;
42614;SDS011;28754;47.700;7.924;2023-12-20T11:54:46;3.80;;;3.25;;
42614;SDS011;28754;47.700;7.924;2023-12-20T11:57:33;4.55;;;2.97;;
42614;SDS011;28754;47.700;7.924;2023-12-20T12:00:21;3.45;;;2.78;;
42614;SDS011;28754;47.700;7.924;2023-12-20T12:03:09;4.50;;;2.70;;
42614;SDS011;28754;47.700;7.924;2023-12-20T12:05:55;4.80;;;2.70;;
42614;SDS011;28754;47.700;7.924;2023-12-20T12:08:43;3.00;;;2.53;;
42614;SDS011;28754;47.700;7.924;2023-12-20T12:11:29;4.43;;;2.53;;
42614;SDS011;28754;47.700;7.924;2023-12-20T12:14:19;3.80;;;2.95;;
42614;SDS011;28754;47.700;7.924;2023-12-20T12:17:10;4.90;;;3.22;;
42614;SDS011;28754;47.700;7.924;2023-12-20T12:20:04;6.50;;;3.40;;
42614;SDS011;28754;47.700;7.924;2023-12-20T12:25:50;4.68;;;2.85;;
42614;SDS011;28754;47.700;7.924;2023-12-20T12:28:39;3.72;;;2.60;;
42614;SDS011;28754;47.700;7.924;2023-12-20T12:31:28;5.38;;;3.08;;
42614;SDS011;28754;47.700;7.924;2023-12-20T12:34:14;6.10;;;3.63;;
42614;SDS011;28754;47.700;7.924;2023-12-20T12:37:03;5.15;;;3.28;;
42614;SDS011;28754;47.700;7.924;2023-12-20T12:39:50;5.53;;;3.53;;
42614;SDS011;28754;47.700;7.924;2023-12-20T12:42:40;10.25;;;4.32;;
42614;SDS011;28754;47.700;7.924;2023-12-20T12:45:29;8.73;;;4.10;;
42614;SDS011;28754;47.700;7.924;2023-12-20T12:48:16;5.63;;;3.72;;
42614;SDS011;28754;47.700;7.924;2023-12-20T12:51:03;6.10;;;3.13;;
42614;SDS011;28754;47.700;7.924;2023-12-20T12:53:50;12.05;;;4.15;;
42614;SDS011;28754;47.700;7.924;2023-12-20T12:56:37;6.82;;;4.18;;
42614;SDS011;28754;47.700;7.924;2023-12-20T12:59:24;6.55;;;4.28;;
42614;SDS011;28754;47.700;7.924;2023-12-20T13:02:12;5.90;;;4.10;;
42614;SDS011;28754;47.700;7.924;2023-12-20T13:04:59;8.40;;;3.50;;
42614;SDS011;28754;47.700;7.924;2023-12-20T13:07:48;5.38;;;3.47;;
42614;SDS011;28754;47.700;7.924;2023-12-20T13:10:35;4.90;;;3.17;;
42614;SDS011;28754;47.700;7.924;2023-12-20T13:13:21;4.70;;;2.85;;
42614;SDS011;28754;47.700;7.924;2023-12-20T13:16:08;8.07;;;3.20;;
42614;SDS011;28754;47.700;7.924;2023-12-20T13:18:57;6.20;;;2.50;;
42614;SDS011;28754;47.700;7.924;2023-12-20T13:21:45;8.40;;;3.08;;
42614;SDS011;28754;47.700;7.924;2023-12-20T13:24:32;5.45;;;2.78;;
42614;SDS011;28754;47.700;7.924;2023-12-20T13:27:19;5.53;;;2.70;;
42614;SDS011;28754;47.700;7.924;2023-12-20T13:30:06;10.32;;;2.88;;
42614;SDS011;28754;47.700;7.924;2023-12-20T13:32:53;2.70;;;2.20;;
42614;SDS011;28754;47.700;7.924;2023-12-20T13:35:40;5.85;;;2.40;;
42614;SDS011;28754;47.700;7.924;2023-12-20T13:38:26;10.20;;;3.42;;
42614;SDS011;28754;47.700;7.924;2023-12-20T13:41:13;7.72;;;3.15;;
42614;SDS011;28754;47.700;7.924;2023-12-20T13:43:59;4.93;;;3.50;;
42614;SDS011;28754;47.700;7.924;2023-12-20T13:46:49;9.48;;;3.03;;
42614;SDS011;28754;47.700;7.924;2023-12-20T13:49:36;9.98;;;4.28;;
42614;SDS011;28754;47.700;7.924;2023-12-20T13:52:22;10.18;;;3.13;;
42614;SDS011;28754;47.700;7.924;2023-12-20T13:55:09;5.30;;;2.72;;
42614;SDS011;28754;47.700;7.924;2023-12-20T13:57:59;5.65;;;1.83;;
42614;SDS011;28754;47.700;7.924;2023-12-20T14:03:54;6.28;;;3.90;;
42614;SDS011;28754;47.700;7.924;2023-12-20T14:06:41;9.88;;;2.85;;
42614;SDS011;28754;47.700;7.924;2023-12-20T14:12:39;5.07;;;2.00;;
42614;SDS011;28754;47.700;7.924;2023-12-20T14:18:19;8.02;;;2.58;;
42614;SDS011;28754;47.700;7.924;2023-12-20T14:24:01;9.60;;;2.45;;
42614;SDS011;28754;47.700;7.924;2023-12-20T14:29:35;6.00;;;2.65;;
42614;SDS011;28754;47.700;7.924;2023-12-20T14:32:31;10.93;;;2.65;;
42614;SDS011;28754;47.700;7.924;2023-12-20T14:35:23;14.73;;;3.30;;
42614;SDS011;28754;47.700;7.924;2023-12-20T14:38:10;8.05;;;2.30;;
42614;SDS011;28754;47.700;7.924;2023-12-20T14:41:07;6.93;;;2.00;;
42614;SDS011;28754;47.700;7.924;2023-12-20T14:43:58;6.38;;;2.13;;
42614;SDS011;28754;47.700;7.924;2023-12-20T14:46:53;5.50;;;2.15;;
42614;SDS011;28754;47.700;7.924;2023-12-20T14:49:41;7.30;;;2.47;;
42614;SDS011;28754;47.700;7.924;2023-12-20T14:52:28;7.22;;;1.90;;
42614;SDS011;28754;47.700;7.924;2023-12-20T14:55:17;11.68;;;2.15;;
42614;SDS011;28754;47.700;7.924;2023-12-20T14:58:04;11.15;;;2.42;;
42614;SDS011;28754;47.700;7.924;2023-12-20T15:03:33;6.60;;;2.47;;
42614;SDS011;28754;47.700;7.924;2023-12-20T15:09:03;11.82;;;2.20;;
42614;SDS011;28754;47.700;7.924;2023-12-20T15:12:07;6.05;;;1.92;;
42614;SDS011;28754;47.700;7.924;2023-12-20T15:18:12;12.38;;;2.40;;
42614;SDS011;28754;47.700;7.924;2023-12-20T15:21:00;5.53;;;2.03;;
42614;SDS011;28754;47.700;7.924;2023-12-20T15:23:55;5.68;;;1.70;;
42614;SDS011;28754;47.700;7.924;2023-12-20T15:26:53;7.82;;;2.10;;
42614;SDS011;28754;47.700;7.924;2023-12-20T15:29:52;4.18;;;2.05;;
42614;SDS011;28754;47.700;7.924;2023-12-20T15:32:39;4.78;;;1.83;;
42614;SDS011;28754;47.700;7.924;2023-12-20T15:35:32;5.13;;;1.38;;
42614;SDS011;28754;47.700;7.924;2023-12-20T15:38:28;6.78;;;1.58;;
42614;SDS011;28754;47.700;7.924;2023-12-20T15:41:37;6.68;;;2.10;;
42614;SDS011;28754;47.700;7.924;2023-12-20T15:47:09;4.28;;;1.73;;
42614;SDS011;28754;47.700;7.924;2023-12-20T15:50:05;5.15;;;1.52;;
42614;SDS011;28754;47.700;7.924;2023-12-20T15:52:57;5.15;;;1.42;;
42614;SDS011;28754;47.700;7.924;2023-12-20T16:01:06;6.55;;;1.80;;
42614;SDS011;28754;47.700;7.924;2023-12-20T16:03:53;8.23;;;2.85;;
42614;SDS011;28754;47.700;7.924;2023-12-20T16:06:47;7.53;;;1.85;;
42614;SDS011;28754;47.700;7.924;2023-12-20T16:09:37;5.38;;;1.77;;
42614;SDS011;28754;47.700;7.924;2023-12-20T16:13:02;5.45;;;1.70;;
42614;SDS011;28754;47.700;7.924;2023-12-20T16:15:55;13.05;;;2.88;;
42614;SDS011;28754;47.700;7.924;2023-12-20T16:18:42;10.70;;;2.58;;
42614;SDS011;28754;47.700;7.924;2023-12-20T16:21:37;5.47;;;1.75;;
42614;SDS011;28754;47.700;7.924;2023-12-20T16:24:24;5.40;;;1.30;;
42614;SDS011;28754;47.700;7.924;2023-12-20T16:29:52;8.23;;;2.05;;
42614;SDS011;28754;47.700;7.924;2023-12-20T16:35:29;7.15;;;3.13;;
42614;SDS011;28754;47.700;7.924;2023-12-20T16:38:16;6.38;;;1.70;;
42614;SDS011;28754;47.700;7.924;2023-12-20T16:41:03;6.30;;;1.85;;
42614;SDS011;28754;47.700;7.924;2023-12-20T16:43:50;9.82;;;2.53;;
42614;SDS011;28754;47.700;7.924;2023-12-20T16:46:36;4.57;;;2.05;;
42614;SDS011;28754;47.700;7.924;2023-12-20T16:49:23;3.95;;;1.50;;
42614;SDS011;28754;47.700;7.924;2023-12-20T16:52:10;10.63;;;1.95;;
42614;SDS011;28754;47.700;7.924;2023-12-20T16:54:56;9.35;;;2.58;;
42614;SDS011;28754;47.700;7.924;2023-12-20T16:57:43;8.90;;;2.30;;
42614;SDS011;28754;47.700;7.924;2023-12-20T17:00:30;11.18;;;2.22;;
42614;SDS011;28754;47.700;7.924;2023-12-20T17:03:17;9.75;;;1.60;;
42614;SDS011;28754;47.700;7.924;2023-12-20T17:06:06;4.35;;;1.73;;
42614;SDS011;28754;47.700;7.924;2023-12-20T17:08:54;7.53;;;1.45;;
42614;SDS011;28754;47.700;7.924;2023-12-20T17:11:40;8.25;;;1.65;;
42614;SDS011;28754;47.700;7.924;2023-12-20T17:14:27;6.75;;;2.03;;
42614;SDS011;28754;47.700;7.924;2023-12-20T17:17:14;5.22;;;1.70;;
42614;SDS011;28754;47.700;7.924;2023-12-20T17:20:00;5.60;;;2.08;;